Time;durP1;ratioP1;P1;durP2;ratioP2;P2;SDS_P1;SDS_P2;PMS_P1;PMS_P2;Temp;Humidity;BMP_temperature;BMP_pressure;BME280_temperature;BME280_humidity;BME280_pressure;Samples;Min_cycle;Max_cycle;Signal;HPM_P1;HPM_P2
2024/03/06 00:00:33;;;;;;;;;;;;;;;9.56;76.20;99354.47;5033744;28;19913;-86
2024/03/06 00:02:58;;;;;;;;;;;;;;;9.60;75.99;99356.75;5033695;28;19928;-87
2024/03/06 00:05:23;;;;;;;;;;;;;;;9.59;76.21;99357.75;5033845;28;19992;-87
2024/03/06 00:07:49;;;;;;;;;;;;;;;9.61;76.01;99364.47;5033744;28;20287;-87
2024/03/06 00:10:14;;;;;;;;;;;;;;;9.63;75.84;99359.03;5033691;28;20406;-87
2024/03/06 00:12:40;;;;;;;;;;;;;;;9.62;76.56;99360.84;5033318;28;20004;-87
2024/03/06 00:15:06;;;;;;;;;;;;;;;9.64;75.85;99360.69;5033513;28;20386;-87
2024/03/06 00:17:31;;;;;;;;;;;;;;;9.65;76.13;99363.13;5033614;28;19913;-87
2024/03/06 00:19:56;;;;;;;;;;;;;;;9.67;76.42;99363.00;5033278;28;19920;-87
2024/03/06 00:22:21;;;;;;;;;;;;;;;9.70;76.64;99362.63;5033689;28;20402;-87
2024/03/06 00:24:47;;;;;;;;;;;;;;;9.74;76.12;99367.38;5033338;28;19913;-87
2024/03/06 00:27:13;;;;;;;;;;;;;;;9.76;76.13;99370.66;5031952;28;19936;-87
2024/03/06 00:29:38;;;;;;;;;;;;;;;9.78;76.33;99363.38;5033249;28;19913;-86
2024/03/06 00:32:04;;;;;;;;;;;;;;;9.80;76.02;99358.75;5033209;28;19923;-87
2024/03/06 00:34:29;;;;;;;;;;;;;;;9.80;76.21;99356.13;5033144;28;20310;-87
2024/03/06 00:36:55;;;;;;;;;;;;;;;9.78;76.00;99352.03;5033136;28;19996;-87
2024/03/06 00:39:20;;;;;;;;;;;;;;;9.78;75.66;99352.84;5033104;28;19943;-86
2024/03/06 00:41:45;;;;;;;;;;;;;;;9.77;75.75;99348.56;5033002;28;19921;-86
2024/03/06 00:44:10;;;;;;;;;;;;;;;9.79;75.60;99353.66;5033398;28;19917;-86
2024/03/06 00:46:36;;;;;;;;;;;;;;;9.79;75.94;99351.03;5033001;28;19913;-86
2024/03/06 00:49:01;;;;;;;;;;;;;;;9.81;75.98;99349.84;5032850;28;19921;-86
2024/03/06 00:51:27;;;;;;;;;;;;;;;9.79;75.53;99351.84;5032897;28;19959;-86
2024/03/06 00:53:52;;;;;;;;;;;;;;;9.76;75.41;99352.19;5032805;28;19940;-86
2024/03/06 00:56:17;;;;;;;;;;;;;;;9.77;75.13;99361.75;5031376;28;19960;-86
2024/03/06 00:58:43;;;;;;;;;;;;;;;9.77;75.32;99358.28;5032746;28;19936;-87
2024/03/06 01:01:08;;;;;;;;;;;;;;;9.77;75.67;99364.38;5032504;28;19913;-85
2024/03/06 01:03:33;;;;;;;;;;;;;;;9.76;75.58;99367.19;5031194;28;19932;-86
2024/03/06 01:05:59;;;;;;;;;;;;;;;9.74;75.72;99366.56;5032601;28;19970;-86
2024/03/06 01:08:24;;;;;;;;;;;;;;;9.74;75.41;99367.38;5032663;28;19913;-87
2024/03/06 01:10:53;;;;;;;;;;;;;;;9.73;74.87;99363.09;5032933;28;19936;-86
2024/03/06 01:13:19;;;;;;;;;;;;;;;9.71;75.49;99367.72;5032632;28;19925;-86
2024/03/06 01:15:44;;;;;;;;;;;;;;;9.71;75.78;99369.53;5032651;28;20353;-87
2024/03/06 01:18:10;;;;;;;;;;;;;;;9.71;75.58;99369.53;5032423;28;19913;-87
2024/03/06 01:20:36;;;;;;;;;;;;;;;9.71;75.29;99372.19;5032280;28;19913;-86
2024/03/06 01:23:01;;;;;;;;;;;;;;;9.70;75.40;99381.91;5032350;28;19988;-87
2024/03/06 01:25:26;;;;;;;;;;;;;;;9.69;75.30;99379.44;5032290;28;20373;-85
2024/03/06 01:27:51;;;;;;;;;;;;;;;9.61;75.63;99385.56;5032231;28;19932;-85
2024/03/06 01:30:17;;;;;;;;;;;;;;;9.63;75.13;99380.94;5032068;28;19945;-85
2024/03/06 01:32:42;;;;;;;;;;;;;;;9.64;75.65;99379.13;5031587;28;19925;-87
2024/03/06 01:35:07;;;;;;;;;;;;;;;9.65;75.14;99380.75;5032308;28;19971;-84
2024/03/06 01:37:33;;;;;;;;;;;;;;;9.61;75.40;99384.75;5032435;28;20367;-87
2024/03/06 01:39:58;;;;;;;;;;;;;;;9.62;75.35;99376.66;5032129;28;19913;-86
2024/03/06 01:42:23;;;;;;;;;;;;;;;9.64;75.31;99387.84;5032024;28;19959;-86
2024/03/06 01:44:49;;;;;;;;;;;;;;;9.67;75.71;99384.06;5031835;28;19948;-85
2024/03/06 01:47:14;;;;;;;;;;;;;;;9.67;75.18;99389.34;5030465;28;19924;-85
2024/03/06 01:49:40;;;;;;;;;;;;;;;9.68;75.39;99394.44;5031750;28;19924;-86
2024/03/06 01:52:05;;;;;;;;;;;;;;;9.69;75.50;99395.28;5031821;28;20422;-86
2024/03/06 01:54:32;;;;;;;;;;;;;;;9.70;75.33;99399.53;5031607;28;19960;-85
2024/03/06 01:56:57;;;;;;;;;;;;;;;9.69;74.70;99398.72;5031502;28;19963;-85
2024/03/06 01:59:25;;;;;;;;;;;;;;;9.67;74.36;99395.44;5030315;28;19945;-84
2024/03/06 02:01:53;;;;;;;;;;;;;;;9.64;75.06;99403.66;5031566;28;19921;-86
2024/03/06 02:04:18;;;;;;;;;;;;;;;9.59;75.05;99400.75;5031754;28;19917;-86
2024/03/06 02:06:44;;;;;;;;;;;;;;;9.57;75.36;99406.19;5031698;28;19913;-86
2024/03/06 02:09:09;;;;;;;;;;;;;;;9.61;75.41;99397.94;5030415;28;19913;-86
2024/03/06 02:11:35;;;;;;;;;;;;;;;9.62;75.46;99397.75;5031606;28;19939;-85
2024/03/06 02:14:01;;;;;;;;;;;;;;;9.65;75.55;99407.94;5030258;28;19917;-85
2024/03/06 02:16:27;;;;;;;;;;;;;;;9.63;75.10;99409.13;5031468;28;19913;-85
2024/03/06 02:18:56;;;;;;;;;;;;;;;9.60;74.70;99407.66;5031621;28;19913;-86
2024/03/06 02:21:23;;;;;;;;;;;;;;;9.58;75.40;99417.56;5031687;28;20000;-86
2024/03/06 02:23:48;;;;;;;;;;;;;;;9.58;74.93;99414.91;5031623;28;19956;-85
2024/03/06 02:26:14;;;;;;;;;;;;;;;9.57;75.27;99422.00;5031616;28;19924;-86
2024/03/06 02:28:39;;;;;;;;;;;;;;;9.60;75.82;99420.00;5031402;28;19978;-85
2024/03/06 02:31:06;;;;;;;;;;;;;;;9.57;75.54;99415.91;5031534;28;19921;-85
2024/03/06 02:33:34;;;;;;;;;;;;;;;9.54;75.92;99416.25;5030126;28;20325;-85
2024/03/06 02:35:59;;;;;;;;;;;;;;;9.51;75.59;99421.88;5030086;28;19920;-85
2024/03/06 02:38:24;;;;;;;;;;;;;;;9.52;75.91;99416.44;5031639;28;19913;-87
2024/03/06 02:40:50;;;;;;;;;;;;;;;9.49;76.00;99421.22;5031608;28;19928;-84
2024/03/06 02:43:15;;;;;;;;;;;;;;;9.45;76.19;99426.03;5033388;28;19913;-85
2024/03/06 02:45:41;;;;;;;;;;;;;;;9.47;75.80;99417.94;5035222;28;19909;-84
2024/03/06 02:48:06;;;;;;;;;;;;;;;9.43;76.37;99424.56;5035252;28;20291;-85
2024/03/06 02:50:31;;;;;;;;;;;;;;;9.39;75.90;99426.72;5035273;28;20007;-85
2024/03/06 02:52:57;;;;;;;;;;;;;;;9.36;76.69;99421.81;5035285;28;19918;-85
2024/03/06 02:55:24;;;;;;;;;;;;;;;9.39;76.23;99424.09;5034918;28;20460;-85
2024/03/06 02:57:50;;;;;;;;;;;;;;;9.44;76.10;99428.84;5033634;28;19920;-85
2024/03/06 03:00:16;;;;;;;;;;;;;;;9.42;75.94;99426.38;5035046;28;19913;-85
2024/03/06 03:02:41;;;;;;;;;;;;;;;9.40;76.24;99425.72;5035164;28;20429;-86
2024/03/06 03:05:07;;;;;;;;;;;;;;;9.40;76.17;99427.53;5035131;28;19912;-85
2024/03/06 03:07:32;;;;;;;;;;;;;;;9.40;75.94;99431.00;5035354;28;19921;-84
2024/03/06 03:09:58;;;;;;;;;;;;;;;9.39;76.66;99431.19;5034965;28;19992;-85
2024/03/06 03:12:23;;;;;;;;;;;;;;;9.35;76.42;99438.59;5034925;28;19920;-86
2024/03/06 03:14:48;;;;;;;;;;;;;;;9.33;76.68;99435.31;5033517;28;19978;-85
2024/03/06 03:17:15;;;;;;;;;;;;;;;9.35;76.63;99425.44;5034739;28;19920;-85
2024/03/06 03:19:40;;;;;;;;;;;;;;;9.38;75.99;99429.53;5034522;28;19948;-85
2024/03/06 03:22:06;;;;;;;;;;;;;;;9.38;76.59;99432.16;5034552;28;20022;-85
2024/03/06 03:24:31;;;;;;;;;;;;;;;9.34;76.63;99433.50;5033304;28;19913;-85
2024/03/06 03:26:56;;;;;;;;;;;;;;;9.31;76.55;99433.84;5034310;28;19913;-87
2024/03/06 03:29:21;;;;;;;;;;;;;;;9.31;76.24;99437.31;5034474;28;19952;-87
2024/03/06 03:31:47;;;;;;;;;;;;;;;9.34;75.78;99436.97;5034500;28;19980;-87
2024/03/06 03:34:12;;;;;;;;;;;;;;;9.34;76.50;99434.31;5034381;28;20004;-86
2024/03/06 03:36:41;;;;;;;;;;;;;;;9.32;76.79;99433.69;5034418;28;19920;-87
2024/03/06 03:39:13;;;;;;;;;;;;;;;9.32;76.68;99436.31;5034309;28;20386;-87
2024/03/06 03:41:38;;;;;;;;;;;;;;;9.36;76.60;99434.16;5034306;28;19917;-87
2024/03/06 03:44:04;;;;;;;;;;;;;;;9.40;76.17;99433.63;5034310;28;19970;-86
2024/03/06 03:46:29;;;;;;;;;;;;;;;9.40;76.60;99428.38;5032857;28;19913;-86
2024/03/06 03:48:54;;;;;;;;;;;;;;;9.39;76.93;99428.53;5034246;28;19909;-87
2024/03/06 03:51:19;;;;;;;;;;;;;;;9.38;76.62;99434.81;5034324;28;19920;-86
2024/03/06 03:53:47;;;;;;;;;;;;;;;9.39;75.90;99433.81;5033488;28;20456;-85
2024/03/06 03:56:13;;;;;;;;;;;;;;;9.39;76.44;99445.16;5033840;28;20000;-86
2024/03/06 03:58:38;;;;;;;;;;;;;;;9.37;76.84;99441.88;5034255;28;20055;-87
2024/03/06 04:01:03;;;;;;;;;;;;;;;9.39;76.18;99445.16;5033986;28;20375;-87
2024/03/06 04:03:29;;;;;;;;;;;;;;;9.43;75.88;99448.28;5032306;28;19921;-87
2024/03/06 04:05:54;;;;;;;;;;;;;;;9.45;74.70;99447.09;5032525;28;19913;-87
2024/03/06 04:08:19;;;;;;;;;;;;;;;9.41;75.69;99443.19;5033803;28;19967;-84
2024/03/06 04:10:45;;;;;;;;;;;;;;;9.37;76.27;99447.16;5033604;28;19919;-85
2024/03/06 04:13:10;;;;;;;;;;;;;;;9.36;76.64;99455.22;5033480;28;19921;-86
2024/03/06 04:15:36;;;;;;;;;;;;;;;9.36;76.58;99456.06;5033527;28;20444;-87
2024/03/06 04:18:01;;;;;;;;;;;;;;;9.34;76.68;99457.22;5033382;28;20390;-87
2024/03/06 04:20:26;;;;;;;;;;;;;;;9.35;76.99;99461.50;5032194;28;19913;-84
2024/03/06 04:22:52;;;;;;;;;;;;;;;9.33;76.91;99466.94;5033407;28;20035;-85
2024/03/06 04:25:17;;;;;;;;;;;;;;;9.32;76.75;99467.94;5033481;28;19920;-85
2024/03/06 04:27:43;;;;;;;;;;;;;;;9.31;77.38;99465.47;5033416;28;19936;-87
2024/03/06 04:30:09;;;;;;;;;;;;;;;9.30;77.50;99471.72;5033356;28;19917;-87
2024/03/06 04:32:34;;;;;;;;;;;;;;;9.31;76.77;99476.81;5033506;28;19914;-85
2024/03/06 04:34:59;;;;;;;;;;;;;;;9.33;76.22;99480.09;5033055;28;19999;-85
2024/03/06 04:37:26;;;;;;;;;;;;;;;9.35;76.05;99472.84;5033407;28;20417;-85
2024/03/06 04:39:52;;;;;;;;;;;;;;;9.38;76.27;99484.88;5033104;28;19913;-85
2024/03/06 04:42:17;;;;;;;;;;;;;;;9.37;76.50;99478.78;5033093;28;20325;-85
2024/03/06 04:44:43;;;;;;;;;;;;;;;9.38;76.79;99490.97;5031744;28;19913;-85
2024/03/06 04:47:08;;;;;;;;;;;;;;;9.36;76.62;99490.31;5033051;28;19963;-85
2024/03/06 04:49:36;;;;;;;;;;;;;;;9.36;76.83;99492.13;5033030;28;20370;-85
2024/03/06 04:52:02;;;;;;;;;;;;;;;9.40;76.09;99490.78;5032997;28;19988;-86
2024/03/06 04:54:28;;;;;;;;;;;;;;;9.41;76.70;99485.34;5032818;28;19917;-86
2024/03/06 04:56:53;;;;;;;;;;;;;;;9.44;76.50;99495.53;5032601;28;19919;-85
2024/03/06 04:59:18;;;;;;;;;;;;;;;9.46;76.54;99501.47;5032876;28;19955;-85
2024/03/06 05:01:44;;;;;;;;;;;;;;;9.50;76.11;99502.75;5032574;28;19921;-85
2024/03/06 05:04:09;;;;;;;;;;;;;;;9.54;76.28;99505.88;5032575;28;20457;-84
2024/03/06 05:06:35;;;;;;;;;;;;;;;9.54;76.23;99501.41;5030469;28;19917;-87
2024/03/06 05:09:00;;;;;;;;;;;;;;;9.55;76.00;99515.41;5031388;28;19979;-86
2024/03/06 05:11:26;;;;;;;;;;;;;;;9.58;76.26;99507.16;5032483;28;19909;-86
2024/03/06 05:13:51;;;;;;;;;;;;;;;9.61;76.56;99511.28;5032151;28;20413;-87
2024/03/06 05:16:17;;;;;;;;;;;;;;;9.60;75.81;99518.34;5032491;28;19913;-87
2024/03/06 05:18:42;;;;;;;;;;;;;;;9.60;76.47;99514.91;5032435;28;20309;-87
2024/03/06 05:21:08;;;;;;;;;;;;;;;9.57;76.23;99516.88;5032256;28;19913;-85
2024/03/06 05:23:34;;;;;;;;;;;;;;;9.60;76.29;99517.53;5032244;28;19948;-86
2024/03/06 05:25:59;;;;;;;;;;;;;;;9.62;75.94;99508.47;5032246;28;19920;-84
2024/03/06 05:28:24;;;;;;;;;;;;;;;9.63;76.18;99515.38;5031113;28;19939;-86
2024/03/06 05:30:50;;;;;;;;;;;;;;;9.64;76.47;99518.84;5032290;28;20417;-85
2024/03/06 05:33:15;;;;;;;;;;;;;;;9.62;76.38;99518.19;5032115;28;19917;-85
2024/03/06 05:35:40;;;;;;;;;;;;;;;9.61;76.69;99529.72;5032062;28;19920;-85
2024/03/06 05:38:06;;;;;;;;;;;;;;;9.58;76.39;99528.25;5032471;28;19913;-86
2024/03/06 05:40:37;;;;;;;;;;;;;;;9.57;76.40;99526.63;5032098;28;19963;-85
2024/03/06 05:43:02;;;;;;;;;;;;;;;9.60;76.57;99530.72;5031887;28;19913;-85
2024/03/06 05:45:27;;;;;;;;;;;;;;;9.61;76.49;99527.91;5030546;28;19967;-85
2024/03/06 05:47:54;;;;;;;;;;;;;;;9.65;76.41;99523.13;5031706;28;19913;-85
2024/03/06 05:50:19;;;;;;;;;;;;;;;9.70;76.44;99526.09;5031694;28;20378;-85
2024/03/06 05:52:44;;;;;;;;;;;;;;;9.71;76.47;99522.47;5031615;28;19952;-87
2024/03/06 05:55:10;;;;;;;;;;;;;;;9.69;76.68;99524.44;5030477;28;19925;-86
2024/03/06 05:57:35;;;;;;;;;;;;;;;9.68;76.58;99530.72;5031682;28;19917;-87
2024/03/06 06:00:01;;;;;;;;;;;;;;;9.71;76.53;99530.38;5031625;28;20402;-85
2024/03/06 06:02:27;;;;;;;;;;;;;;;9.73;76.46;99523.94;5030657;28;19975;-87
2024/03/06 06:04:52;;;;;;;;;;;;;;;9.75;76.26;99534.28;5032039;28;19913;-86
2024/03/06 06:07:18;;;;;;;;;;;;;;;9.78;75.84;99528.69;5031347;28;20425;-86
2024/03/06 06:09:43;;;;;;;;;;;;;;;9.84;75.87;99530.63;5031477;28;20705;-85
2024/03/06 06:12:08;;;;;;;;;;;;;;;9.84;75.74;99533.25;5031557;28;19913;-85
2024/03/06 06:14:34;;;;;;;;;;;;;;;9.84;76.04;99538.53;5031427;28;19940;-85
2024/03/06 06:16:59;;;;;;;;;;;;;;;9.82;75.87;99543.97;5032408;28;19951;-85
2024/03/06 06:19:24;;;;;;;;;;;;;;;9.82;75.14;99538.72;5055399;28;19916;-85
2024/03/06 06:21:52;;;;;;;;;;;;;;;9.79;75.14;99552.25;5037993;28;19939;-85
2024/03/06 06:24:18;;;;;;;;;;;;;;;9.76;74.98;99549.13;5038118;28;19913;-85
2024/03/06 06:26:43;;;;;;;;;;;;;;;9.71;75.49;99551.47;5043583;28;20598;-85
2024/03/06 06:29:08;;;;;;;;;;;;;;;9.72;74.91;99553.91;5056601;28;19936;-86
2024/03/06 06:31:34;;;;;;;;;;;;;;;9.37;75.22;99494.59;5060407;28;19966;-85
2024/03/06 06:33:59;;;;;;;;;;;;;;;9.77;75.18;99548.94;5038137;28;19921;-85
2024/03/06 06:36:24;;;;;;;;;;;;;;;9.79;74.79;99551.41;5053282;28;19966;-84
2024/03/06 06:38:50;;;;;;;;;;;;;;;9.81;74.78;99559.97;5037952;28;20003;-85
2024/03/06 06:41:15;;;;;;;;;;;;;;;9.82;75.42;99558.97;5037898;28;19913;-85
2024/03/06 06:43:41;;;;;;;;;;;;;;;9.88;75.42;99563.56;5037711;28;19935;-85
2024/03/06 06:46:07;;;;;;;;;;;;;;;9.96;75.47;99557.41;5053971;28;19912;-85
2024/03/06 06:48:33;;;;;;;;;;;;;;;10.01;74.40;99558.53;5057939;28;19923;-85
2024/03/06 06:51:00;;;;;;;;;;;;;;;10.02;75.12;99568.09;5056899;28;20426;-85
2024/03/06 06:53:25;;;;;;;;;;;;;;;10.06;75.16;99564.13;5057765;28;19920;-86
2024/03/06 06:55:51;;;;;;;;;;;;;;;10.10;74.60;99569.88;5057616;28;19913;-85
2024/03/06 06:58:16;;;;;;;;;;;;;;;10.17;74.92;99574.28;5057677;28;19919;-86
2024/03/06 07:00:41;;;;;;;;;;;;;;;10.16;74.82;99575.25;5052898;28;19913;-86
2024/03/06 07:03:07;;;;;;;;;;;;;;;10.17;75.07;99576.09;5037672;28;19932;-83
2024/03/06 07:05:33;;;;;;;;;;;;;;;10.22;74.93;99578.22;5049443;28;19923;-85
2024/03/06 07:07:58;;;;;;;;;;;;;;;10.29;74.79;99573.91;5056385;28;19913;-84
2024/03/06 07:10:23;;;;;;;;;;;;;;;10.35;75.06;99575.84;5056308;28;19913;-85
2024/03/06 07:12:49;;;;;;;;;;;;;;;10.43;75.19;99578.44;5057504;28;19905;-85
2024/03/06 07:15:14;;;;;;;;;;;;;;;10.46;75.72;99583.38;5058667;28;19916;-85
2024/03/06 07:17:39;;;;;;;;;;;;;;;10.49;74.12;99583.03;5057437;28;19909;-85
2024/03/06 07:20:06;;;;;;;;;;;;;;;10.52;74.71;99581.84;5056186;28;19921;-85
2024/03/06 07:22:31;;;;;;;;;;;;;;;10.55;73.90;99582.31;5058341;28;19966;-85
2024/03/06 07:24:56;;;;;;;;;;;;;;;10.56;73.71;99583.97;5059549;28;20004;-85
2024/03/06 07:27:22;;;;;;;;;;;;;;;10.57;73.46;99588.25;5057605;28;20462;-85
2024/03/06 07:29:47;;;;;;;;;;;;;;;10.58;73.85;99586.41;5054379;28;19920;-84
2024/03/06 07:32:12;;;;;;;;;;;;;;;10.62;73.71;99574.50;5055108;28;20009;-84
2024/03/06 07:34:38;;;;;;;;;;;;;;;10.71;73.24;99576.91;5053977;28;20318;-84
2024/03/06 07:37:04;;;;;;;;;;;;;;;10.81;73.07;99577.47;5054241;28;19919;-83
2024/03/06 07:39:31;;;;;;;;;;;;;;;10.88;73.57;99579.41;5054226;28;20393;-84
2024/03/06 07:41:56;;;;;;;;;;;;;;;10.97;73.70;99570.41;5054213;28;19913;-85
2024/03/06 07:44:21;;;;;;;;;;;;;;;11.06;73.57;99577.25;5054979;28;19919;-83
2024/03/06 07:46:47;;;;;;;;;;;;;;;11.13;73.12;99575.53;5074284;28;19912;-84
2024/03/06 07:49:12;;;;;;;;;;;;;;;11.23;73.37;99570.81;5073816;28;19912;-84
2024/03/06 07:51:37;;;;;;;;;;;;;;;11.26;71.96;99562.53;5052039;28;20389;-85
2024/03/06 07:54:04;;;;;;;;;;;;;;;11.29;71.63;99556.88;5033562;28;19917;-84
2024/03/06 07:56:29;;;;;;;;;;;;;;;11.30;71.91;99563.81;5032513;28;19913;-83
2024/03/06 07:58:55;;;;;;;;;;;;;;;11.33;72.36;99562.63;5033755;28;19970;-84
2024/03/06 08:01:20;;;;;;;;;;;;;;;11.35;72.03;99568.53;5033924;28;20024;-84
2024/03/06 08:03:46;;;;;;;;;;;;;;;11.37;71.77;99575.28;5039391;28;19932;-84
2024/03/06 08:06:11;;;;;;;;;;;;;;;11.43;72.41;99563.97;5033639;28;19919;-85
2024/03/06 08:08:39;;;;;;;;;;;;;;;11.49;72.32;99572.19;5036139;28;19913;-85
2024/03/06 08:11:04;;;;;;;;;;;;;;;11.54;71.43;99565.34;5049551;28;20230;-85
2024/03/06 08:13:30;;;;;;;;;;;;;;;11.56;71.30;99575.75;5053439;28;20011;-84
2024/03/06 08:15:55;;;;;;;;;;;;;;;11.68;71.29;99576.91;5065724;28;20400;-83
2024/03/06 08:18:20;;;;;;;;;;;;;;;11.77;70.88;99581.09;5068875;28;19967;-84
2024/03/06 08:20:46;;;;;;;;;;;;;;;11.85;70.99;99581.03;5072446;28;19917;-84
2024/03/06 08:23:11;;;;;;;;;;;;;;;11.92;69.90;99587.25;5073237;28;19913;-84
2024/03/06 08:25:36;;;;;;;;;;;;;;;11.95;70.47;99573.63;5073238;28;19912;-84
2024/03/06 08:28:05;;;;;;;;;;;;;;;11.92;69.99;99579.31;5072941;28;20373;-84
2024/03/06 08:30:30;;;;;;;;;;;;;;;11.90;69.85;99585.78;5072918;28;19912;-84
2024/03/06 08:32:56;;;;;;;;;;;;;;;11.91;70.25;99577.66;5071730;28;19912;-84
2024/03/06 08:35:23;;;;;;;;;;;;;;;11.83;69.72;99582.22;5053022;28;19917;-84
2024/03/06 08:37:49;;;;;;;;;;;;;;;11.84;69.76;99584.66;5052938;28;19971;-84
2024/03/06 08:40:14;;;;;;;;;;;;;;;11.86;69.38;99582.66;5055415;28;19956;-84
2024/03/06 08:42:40;;;;;;;;;;;;;;;11.91;70.09;99587.44;5068400;28;19916;-84
2024/03/06 08:45:06;;;;;;;;;;;;;;;12.04;69.81;99582.28;5039133;28;19921;-84
2024/03/06 08:47:31;;;;;;;;;;;;;;;12.22;69.57;99587.16;5051490;28;20443;-83
2024/03/06 08:49:56;;;;;;;;;;;;;;;12.41;69.07;99592.66;5052793;28;19913;-83
2024/03/06 08:52:21;;;;;;;;;;;;;;;12.66;68.46;99587.00;5052371;28;19913;-83
2024/03/06 08:54:47;;;;;;;;;;;;;;;12.86;68.10;99587.19;5052389;28;19973;-83
2024/03/06 08:57:12;;;;;;;;;;;;;;;12.97;68.06;99589.31;5052460;28;19966;-83
2024/03/06 08:59:37;;;;;;;;;;;;;;;12.97;67.15;99584.00;5052357;28;19913;-82
2024/03/06 09:02:19;;;;;;;;;;;;;;;12.96;67.92;99585.03;5052360;28;19927;-83
2024/03/06 09:04:45;;;;;;;;;;;;;;;12.95;67.68;99592.16;5063793;28;19916;-82
2024/03/06 09:07:10;;;;;;;;;;;;;;;12.98;67.47;99593.59;5070717;28;19920;-82
2024/03/06 09:09:36;;;;;;;;;;;;;;;12.99;66.30;99581.97;5052346;28;19905;-84
2024/03/06 09:12:04;;;;;;;;;;;;;;;13.01;66.09;99582.59;5052133;28;20010;-84
2024/03/06 09:14:29;;;;;;;;;;;;;;;13.03;66.33;99581.41;5051954;28;19917;-82
2024/03/06 09:16:55;;;;;;;;;;;;;;;13.09;66.49;99581.66;5052224;28;20570;-83
2024/03/06 09:19:20;;;;;;;;;;;;;;;13.12;66.83;99587.38;5052214;28;19913;-82
2024/03/06 09:21:45;;;;;;;;;;;;;;;13.16;66.79;99582.50;5052112;28;19913;-83
2024/03/06 09:24:11;;;;;;;;;;;;;;;13.17;66.16;99584.19;5050927;28;20011;-82
2024/03/06 09:26:37;;;;;;;;;;;;;;;13.19;66.55;99584.81;5053246;28;19917;-84
2024/03/06 09:29:02;;;;;;;;;;;;;;;13.21;66.76;99585.44;5052171;28;20305;-84
2024/03/06 09:31:27;;;;;;;;;;;;;;;13.23;66.90;99586.88;5052056;28;20382;-83
2024/03/06 09:33:53;;;;;;;;;;;;;;;13.22;66.25;99590.53;5051972;28;19924;-83
2024/03/06 09:36:18;;;;;;;;;;;;;;;13.24;66.78;99585.88;5050379;28;19913;-83
2024/03/06 09:38:43;;;;;;;;;;;;;;;13.25;66.27;99587.50;5050606;28;19965;-83
2024/03/06 09:41:09;;;;;;;;;;;;;;;13.31;66.75;99591.22;5051865;28;19920;-83
2024/03/06 09:43:34;;;;;;;;;;;;;;;13.42;65.83;99589.88;5051799;28;19969;-83
2024/03/06 09:46:02;;;;;;;;;;;;;;;13.49;66.09;99588.06;5052764;28;19916;-83
2024/03/06 09:48:29;;;;;;;;;;;;;;;13.53;65.78;99592.78;5051387;28;20365;-84
2024/03/06 09:50:57;;;;;;;;;;;;;;;13.59;65.70;99581.41;5051489;28;19920;-84
2024/03/06 09:53:23;;;;;;;;;;;;;;;13.59;63.03;99583.22;5049602;28;20448;-83
2024/03/06 09:55:49;;;;;;;;;;;;;;;13.59;62.05;99586.72;5050168;28;19988;-84
2024/03/06 09:58:14;;;;;;;;;;;;;;;13.60;62.51;99585.69;5051408;28;19940;-84
2024/03/06 10:00:40;;;;;;;;;;;;;;;13.52;60.98;99591.16;5047138;28;19992;-84
2024/03/06 10:03:05;;;;;;;;;;;;;;;13.55;61.29;99584.66;5060790;28;19928;-82
2024/03/06 10:05:33;;;;;;;;;;;;;;;13.60;61.83;99590.19;5068844;28;19981;-85
2024/03/06 10:07:59;;;;;;;;;;;;;;;13.71;62.94;99586.16;5051591;28;19999;-85
2024/03/06 10:10:25;;;;;;;;;;;;;;;13.81;62.60;99587.41;5050265;28;19920;-84
2024/03/06 10:12:50;;;;;;;;;;;;;;;13.93;62.22;99583.19;5048089;28;19917;-84
2024/03/06 10:15:16;;;;;;;;;;;;;;;14.05;61.25;99579.94;5038014;28;20352;-84
2024/03/06 10:17:41;;;;;;;;;;;;;;;14.06;60.78;99582.41;5034088;28;19917;-84
2024/03/06 10:20:33;;;;;;;;;;;;;;;14.13;60.24;99585.94;5029987;28;19921;-84
2024/03/06 10:22:58;;;;;;;;;;;;;;;14.16;62.12;99582.06;5030338;28;19913;-84
2024/03/06 10:25:23;;;;;;;;;;;;;;;14.11;60.45;99582.63;5066648;28;19913;-82
2024/03/06 10:28:05;;;;;;;;;;;;;;;14.11;61.18;99571.19;5054417;28;19920;-81
2024/03/06 10:30:31;;;;;;;;;;;;;;;14.18;61.80;99582.66;5049676;28;19999;-83
2024/03/06 10:32:56;;;;;;;;;;;;;;;14.11;60.23;99565.88;5054113;28;20003;-83
2024/03/06 10:35:22;;;;;;;;;;;;;;;14.10;61.44;99569.56;5070023;28;19912;-82
2024/03/06 10:37:48;;;;;;;;;;;;;;;14.12;61.21;99562.19;5065560;28;19913;-82
2024/03/06 10:40:14;;;;;;;;;;;;;;;14.15;59.99;99559.19;5071014;28;19920;-82
2024/03/06 10:42:42;;;;;;;;;;;;;;;14.28;60.43;99559.19;5070829;28;20019;-82
2024/03/06 10:45:08;;;;;;;;;;;;;;;14.34;60.25;99560.25;5070798;28;19996;-82
2024/03/06 10:47:35;;;;;;;;;;;;;;;14.43;59.45;99554.56;5070900;28;19921;-83
2024/03/06 10:50:04;;;;;;;;;;;;;;;14.53;60.10;99559.47;5060755;28;20424;-83
2024/03/06 10:52:30;;;;;;;;;;;;;;;14.61;59.96;99552.13;5050987;28;20309;-83
2024/03/06 10:54:58;;;;;;;;;;;;;;;14.71;58.95;99556.22;5050537;28;19921;-83
2024/03/06 10:57:25;;;;;;;;;;;;;;;14.68;58.89;99553.97;5048378;28;19939;-83
2024/03/06 10:59:52;;;;;;;;;;;;;;;14.63;58.64;99555.38;5081227;28;19922;-83
2024/03/06 11:02:17;;;;;;;;;;;;;;;14.69;59.35;99543.13;5045104;28;19921;-82
2024/03/06 11:04:43;;;;;;;;;;;;;;;14.76;60.15;99551.09;5050483;28;19970;-83
2024/03/06 11:07:09;;;;;;;;;;;;;;;14.96;59.99;99546.63;5047605;28;20392;-83
2024/03/06 11:09:35;;;;;;;;;;;;;;;15.08;60.19;99538.81;5057594;28;20363;-82
2024/03/06 11:12:00;;;;;;;;;;;;;;;15.08;59.10;99538.81;5045787;28;19960;-82
2024/03/06 11:14:26;;;;;;;;;;;;;;;15.10;58.88;99534.13;5044254;28;20012;-81
2024/03/06 11:17:08;;;;;;;;;;;;;;;15.05;57.65;99537.41;5034576;28;19920;-83
2024/03/06 11:19:52;;;;;;;;;;;;;;;15.08;58.11;99525.53;5045103;28;19959;-83
2024/03/06 11:22:17;;;;;;;;;;;;;;;15.30;58.15;99526.09;5049192;28;19924;-82
2024/03/06 11:24:42;;;;;;;;;;;;;;;15.54;57.41;99520.06;5033061;28;19913;-83
2024/03/06 11:27:10;;;;;;;;;;;;;;;15.77;54.52;99512.47;5053768;28;19916;-82
2024/03/06 11:29:53;;;;;;;;;;;;;;;16.07;57.41;99511.88;5055983;28;19927;-81
2024/03/06 11:32:19;;;;;;;;;;;;;;;16.16;55.97;99511.41;5053262;28;19917;-82
2024/03/06 11:34:44;;;;;;;;;;;;;;;16.23;54.11;99500.72;5053765;28;19927;-82
2024/03/06 11:37:09;;;;;;;;;;;;;;;16.42;53.64;99501.63;5039498;28;20390;-81
2024/03/06 11:39:36;;;;;;;;;;;;;;;16.58;55.14;99501.09;5037824;28;19972;-83
2024/03/06 11:42:02;;;;;;;;;;;;;;;16.59;55.67;99502.72;5051566;28;20004;-82
2024/03/06 11:44:29;;;;;;;;;;;;;;;16.63;54.59;99503.09;5072098;28;19956;-82
2024/03/06 11:46:54;;;;;;;;;;;;;;;16.53;55.15;99499.09;5073680;28;19966;-82
2024/03/06 11:49:28;;;;;;;;;;;;;;;16.25;52.55;99497.84;5058674;28;19917;-81
2024/03/06 11:51:54;;;;;;;;;;;;;;;16.08;55.03;99495.69;5055321;28;20411;-81
2024/03/06 11:54:23;;;;;;;;;;;;;;;15.95;54.90;99502.94;5066178;28;20377;-82
2024/03/06 11:56:50;;;;;;;;;;;;;;;16.05;55.42;99490.78;5073399;28;19920;-82
2024/03/06 11:59:16;;;;;;;;;;;;;;;16.20;53.99;99496.63;5041772;28;20405;-81
2024/03/06 12:01:41;;;;;;;;;;;;;;;16.35;55.19;99487.50;5050598;28;19917;-82
2024/03/06 12:04:07;;;;;;;;;;;;;;;16.29;53.30;99491.03;5057112;28;19917;-83
2024/03/06 12:06:34;;;;;;;;;;;;;;;16.30;52.99;99490.81;5032932;28;20157;-83
2024/03/06 12:08:59;;;;;;;;;;;;;;;16.36;53.68;99489.19;5051385;28;20313;-83
2024/03/06 12:11:25;;;;;;;;;;;;;;;16.29;53.74;99481.22;5054360;28;20312;-83
2024/03/06 12:13:54;;;;;;;;;;;;;;;16.11;51.14;99484.59;5033749;28;19924;-81
2024/03/06 12:16:19;;;;;;;;;;;;;;;15.96;53.02;99481.44;5032213;28;19928;-82
2024/03/06 12:18:45;;;;;;;;;;;;;;;15.91;51.95;99489.25;5031798;28;19913;-81
2024/03/06 12:21:10;;;;;;;;;;;;;;;15.94;53.25;99488.81;5032086;28;19917;-82
2024/03/06 12:23:36;;;;;;;;;;;;;;;15.99;52.01;99493.50;5033110;28;19921;-82
2024/03/06 12:26:10;;;;;;;;;;;;;;;16.06;54.32;99486.28;5033145;28;20028;-83
2024/03/06 12:28:36;;;;;;;;;;;;;;;16.04;51.37;99481.19;5046270;28;20355;-83
2024/03/06 12:31:02;;;;;;;;;;;;;;;16.03;52.26;99482.22;5054201;28;19999;-83
2024/03/06 12:33:28;;;;;;;;;;;;;;;16.04;52.37;99483.03;5052692;28;19925;-84
2024/03/06 12:36:19;;;;;;;;;;;;;;;15.99;52.00;99475.69;5052126;28;19973;-84
2024/03/06 12:38:44;;;;;;;;;;;;;;;16.09;52.09;99476.03;5038322;28;20417;-83
2024/03/06 12:41:10;;;;;;;;;;;;;;;16.11;52.40;99473.97;5067628;28;19921;-83
2024/03/06 12:43:35;;;;;;;;;;;;;;;16.18;54.35;99479.25;5052621;28;19923;-84
2024/03/06 12:46:00;;;;;;;;;;;;;;;16.19;53.20;99475.53;5053377;28;19913;-82